Time;durP1;ratioP1;P1;durP2;ratioP2;P2;SDS_P1;SDS_P2;PMS_P1;PMS_P2;Temp;Humidity;BMP_temperature;BMP_pressure;BME280_temperature;BME280_humidity;BME280_pressure;Samples;Min_cycle;Max_cycle;Signal;HPM_P1;HPM_P2
2022/08/03 00:02:19;;;;;;;4.10;3.80;;;21.90;99.90;;;;;;5053958;28;20648;-58
2022/08/03 00:04:47;;;;;;;6.23;4.43;;;21.90;99.90;;;;;;5054028;28;20281;-58
2022/08/03 00:07:17;;;;;;;5.17;4.73;;;21.90;99.90;;;;;;5054482;28;20361;-58
2022/08/03 00:09:45;;;;;;;4.83;4.43;;;21.80;99.90;;;;;;5054305;28;20285;-58
2022/08/03 00:12:14;;;;;;;4.27;3.90;;;21.80;99.90;;;;;;5054017;28;20654;-59
2022/08/03 00:14:42;;;;;;;6.33;4.57;;;21.70;99.90;;;;;;5053864;28;20227;-58
2022/08/03 00:17:11;;;;;;;4.40;4.00;;;21.70;99.90;;;;;;5054232;28;20649;-58
2022/08/03 00:19:39;;;;;;;5.33;4.77;;;21.70;99.90;;;;;;5053721;28;20232;-57
2022/08/03 00:22:07;;;;;;;5.13;4.63;;;21.60;99.90;;;;;;5053875;28;20277;-58
2022/08/03 00:24:36;;;;;;;4.33;4.03;;;21.60;99.90;;;;;;5053565;28;20266;-58
2022/08/03 00:27:05;;;;;;;6.00;5.40;;;21.60;99.90;;;;;;5053068;28;20587;-58
2022/08/03 00:29:33;;;;;;;7.13;5.63;;;21.60;99.90;;;;;;5053834;28;20222;-59
2022/08/03 00:32:21;;;;;;;6.83;6.13;;;21.60;99.90;;;;;;5053442;28;20318;-58
2022/08/03 00:34:51;;;;;;;5.23;4.73;;;21.60;99.90;;;;;;5053992;28;20635;-58
2022/08/03 00:37:26;;;;;;;6.17;5.67;;;21.50;99.90;;;;;;5054016;28;20319;-57
2022/08/03 00:40:12;;;;;;;6.27;5.03;;;21.50;99.90;;;;;;5053776;28;20220;-58
2022/08/03 00:42:52;;;;;;;5.63;5.07;;;21.50;99.90;;;;;;5053084;28;20220;-58
2022/08/03 00:45:23;;;;;;;6.30;5.70;;;21.40;99.90;;;;;;5049116;28;20571;-58
2022/08/03 00:48:01;;;;;;;6.13;5.57;;;21.40;99.90;;;;;;5121112;27;20999;-58
2022/08/03 00:50:33;;;;;;;8.17;5.80;;;21.40;99.90;;;;;;5105125;28;20229;-59
2022/08/03 00:53:04;;;;;;;6.60;6.00;;;21.40;99.90;;;;;;5106887;28;20236;-59
2022/08/03 00:55:32;;;;;;;6.03;5.50;;;21.30;99.90;;;;;;5098469;28;20276;-59
2022/08/03 00:58:05;;;;;;;6.13;5.63;;;21.30;99.90;;;;;;5090477;28;20316;-58
2022/08/03 01:00:37;;;;;;;6.53;5.90;;;21.30;99.90;;;;;;5083310;28;20246;-59
2022/08/03 01:03:08;;;;;;;6.50;5.90;;;21.30;99.90;;;;;;5046959;28;20638;-59
2022/08/03 01:05:44;;;;;;;7.13;6.53;;;21.30;99.90;;;;;;5050011;28;20259;-59
2022/08/03 01:08:23;;;;;;;6.37;5.77;;;21.30;99.90;;;;;;5049574;28;20276;-58
2022/08/03 01:10:57;;;;;;;6.80;6.20;;;21.30;99.90;;;;;;5030200;28;20306;-59
2022/08/03 01:13:34;;;;;;;6.73;6.03;;;21.30;99.90;;;;;;5054395;28;20234;-58
2022/08/03 01:16:29;;;;;;;7.20;6.60;;;21.20;99.90;;;;;;5029844;28;20227;-59
2022/08/03 01:19:25;;;;;;;7.13;6.20;;;21.20;99.90;;;;;;5029850;28;20232;-59
2022/08/03 01:22:06;;;;;;;6.77;6.07;;;21.20;99.90;;;;;;5029689;28;20228;-59
2022/08/03 01:24:44;;;;;;;7.30;6.60;;;21.10;99.90;;;;;;5044482;28;20255;-59
2022/08/03 01:27:18;;;;;;;6.37;5.87;;;21.10;99.90;;;;;;5029867;28;20228;-57
2022/08/03 01:30:07;;;;;;;7.33;6.73;;;21.10;99.90;;;;;;5029824;28;20248;-59
2022/08/03 01:32:40;;;;;;;7.23;6.53;;;21.10;99.90;;;;;;5058639;28;20317;-59
2022/08/03 01:35:34;;;;;;;7.27;6.57;;;21.10;99.90;;;;;;5063689;28;20586;-59
2022/08/03 01:38:11;;;;;;;6.70;6.00;;;21.10;99.90;;;;;;5069049;28;20233;-59
2022/08/03 01:40:43;;;;;;;7.07;6.37;;;21.00;99.90;;;;;;5069027;28;20698;-59
2022/08/03 01:43:16;;;;;;;7.13;6.50;;;21.00;99.90;;;;;;5049461;28;20231;-59
2022/08/03 01:46:07;;;;;;;7.30;6.63;;;21.00;99.90;;;;;;5048252;28;20239;-59
2022/08/03 01:48:37;;;;;;;7.57;6.87;;;21.00;99.90;;;;;;5049059;28;20255;-59
2022/08/03 01:51:08;;;;;;;7.03;6.43;;;20.90;99.90;;;;;;5049475;28;20762;-59
2022/08/03 01:53:38;;;;;;;8.40;7.67;;;20.90;99.90;;;;;;5048570;28;20224;-59
2022/08/03 01:56:06;;;;;;;7.73;7.03;;;20.90;99.90;;;;;;5048509;28;20313;-59
2022/08/03 01:58:36;;;;;;;7.67;6.97;;;20.80;99.90;;;;;;5039895;28;20244;-58
2022/08/03 02:01:06;;;;;;;7.33;6.63;;;20.80;99.90;;;;;;5035364;28;20305;-59
2022/08/03 02:03:38;;;;;;;7.73;6.30;;;20.80;99.90;;;;;;5034818;28;20227;-59
2022/08/03 02:06:27;;;;;;;7.70;6.70;;;20.80;99.90;;;;;;5015735;28;20240;-59
2022/08/03 02:09:18;;;;;;;6.27;5.77;;;20.80;99.90;;;;;;5015774;28;20225;-59
2022/08/03 02:11:47;;;;;;;6.93;6.13;;;20.70;99.90;;;;;;5021333;28;20326;-59
2022/08/03 02:14:17;;;;;;;7.83;7.10;;;20.70;99.90;;;;;;5035498;28;20285;-59
2022/08/03 02:16:49;;;;;;;6.90;6.20;;;20.70;99.90;;;;;;5035191;28;20328;-59
2022/08/03 02:19:18;;;;;;;7.27;6.67;;;20.70;99.90;;;;;;5035663;28;20259;-59
2022/08/03 02:21:46;;;;;;;6.20;5.60;;;20.70;99.90;;;;;;5035046;28;20243;-59
2022/08/03 02:24:28;;;;;;;7.00;6.30;;;20.60;99.90;;;;;;5028958;28;20233;-58
2022/08/03 02:26:57;;;;;;;6.50;6.00;;;20.60;99.90;;;;;;5033337;28;20260;-59
2022/08/03 02:29:27;;;;;;;7.90;7.10;;;20.60;99.90;;;;;;5035376;28;20736;-59
2022/08/03 02:32:13;;;;;;;7.47;6.60;;;20.50;99.90;;;;;;5033281;28;20231;-59
2022/08/03 02:34:44;;;;;;;7.53;6.83;;;20.50;99.90;;;;;;5034178;28;20239;-59
2022/08/03 02:37:14;;;;;;;10.30;7.67;;;20.50;99.90;;;;;;5035254;28;20259;-59
2022/08/03 02:39:44;;;;;;;7.30;6.70;;;20.50;99.90;;;;;;5034673;28;20323;-59
2022/08/03 02:42:16;;;;;;;7.20;6.60;;;20.40;99.90;;;;;;5034917;28;20749;-59
2022/08/03 02:44:49;;;;;;;8.50;7.20;;;20.40;99.90;;;;;;5034580;28;20227;-59
2022/08/03 02:47:20;;;;;;;7.10;6.50;;;20.30;99.90;;;;;;5034700;28;20244;-59
2022/08/03 02:49:50;;;;;;;7.80;7.10;;;20.30;99.90;;;;;;5034972;28;20224;-59
2022/08/03 02:52:22;;;;;;;8.20;7.40;;;20.30;99.90;;;;;;5034975;28;20714;-59
2022/08/03 02:54:53;;;;;;;8.13;7.43;;;20.20;99.90;;;;;;5026487;28;20226;-59
2022/08/03 02:57:23;;;;;;;7.57;6.90;;;20.20;99.90;;;;;;5034744;28;20324;-58
2022/08/03 02:59:52;;;;;;;9.13;7.37;;;20.20;99.90;;;;;;5034482;28;20216;-59
2022/08/03 03:02:23;;;;;;;8.50;7.70;;;20.20;99.90;;;;;;5033610;28;20235;-59
2022/08/03 03:04:52;;;;;;;8.13;7.43;;;20.20;99.90;;;;;;5026381;28;20309;-59
2022/08/03 03:07:41;;;;;;;7.77;7.13;;;20.20;99.90;;;;;;5033965;28;20227;-58
2022/08/03 03:10:21;;;;;;;7.33;6.67;;;20.10;99.90;;;;;;5033377;28;20223;-59
2022/08/03 03:12:52;;;;;;;8.40;7.60;;;20.10;99.90;;;;;;5033188;28;20579;-59
2022/08/03 03:15:20;;;;;;;8.60;7.30;;;20.00;99.90;;;;;;5028025;28;20258;-59
2022/08/03 03:17:52;;;;;;;8.87;7.90;;;20.00;99.90;;;;;;5034109;28;20221;-59
2022/08/03 03:20:21;;;;;;;8.27;7.50;;;20.00;99.90;;;;;;5034220;28;20232;-59
2022/08/03 03:22:59;;;;;;;8.40;7.60;;;20.00;99.90;;;;;;5034211;28;20239;-59
2022/08/03 03:25:30;;;;;;;9.20;8.40;;;20.00;99.90;;;;;;5025568;28;20227;-57
2022/08/03 03:27:59;;;;;;;9.07;8.33;;;19.90;99.90;;;;;;5034153;28;20240;-59
2022/08/03 03:30:28;;;;;;;9.33;8.43;;;19.90;99.90;;;;;;5033410;28;20318;-59
2022/08/03 03:32:59;;;;;;;9.23;8.43;;;19.90;99.90;;;;;;5032237;28;20314;-59
2022/08/03 03:35:27;;;;;;;9.70;8.90;;;19.90;99.90;;;;;;5028149;28;20288;-58
2022/08/03 03:37:56;;;;;;;9.30;8.40;;;19.90;99.90;;;;;;5033941;28;20235;-59
2022/08/03 03:40:25;;;;;;;8.20;7.50;;;19.90;99.90;;;;;;5033667;28;20707;-57
2022/08/03 03:42:54;;;;;;;9.63;8.77;;;19.80;99.90;;;;;;5033701;28;20318;-59
2022/08/03 03:45:23;;;;;;;9.57;8.67;;;19.80;99.90;;;;;;5033906;28;20340;-59
2022/08/03 03:47:51;;;;;;;9.60;8.53;;;19.80;99.90;;;;;;5033491;28;20243;-59
2022/08/03 03:50:22;;;;;;;9.00;8.10;;;19.80;99.90;;;;;;5033876;28;20629;-59
2022/08/03 03:52:50;;;;;;;9.43;7.73;;;19.80;99.90;;;;;;5031052;28;20242;-59
2022/08/03 03:55:18;;;;;;;8.03;7.33;;;19.80;99.90;;;;;;5020355;28;20239;-59
2022/08/03 03:57:47;;;;;;;8.00;7.37;;;19.80;99.90;;;;;;5013989;28;20299;-58
2022/08/03 04:00:17;;;;;;;8.70;8.00;;;19.80;99.90;;;;;;5031845;28;20234;-59
2022/08/03 04:02:46;;;;;;;7.90;7.30;;;19.70;99.90;;;;;;5033412;28;20266;-59
2022/08/03 04:11:02;;;;;;;8.37;7.40;;;19.80;99.90;;;;;;5033261;28;20224;-59
2022/08/03 04:13:34;;;;;;;7.77;7.07;;;19.80;99.90;;;;;;5027467;28;20227;-59
2022/08/03 04:16:04;;;;;;;7.90;7.20;;;19.80;99.90;;;;;;5032746;28;20314;-59
2022/08/03 04:18:35;;;;;;;7.93;7.17;;;19.90;99.90;;;;;;5019090;28;20311;-58
2022/08/03 04:21:07;;;;;;;7.93;7.23;;;19.90;99.90;;;;;;5032665;28;20587;-58
2022/08/03 04:23:42;;;;;;;7.90;7.30;;;20.00;99.90;;;;;;5033121;28;20717;-59
2022/08/03 04:26:14;;;;;;;7.67;6.97;;;20.00;99.90;;;;;;5021624;28;20219;-58
2022/08/03 04:28:45;;;;;;;8.17;7.30;;;20.00;99.90;;;;;;5013115;28;20711;-59
2022/08/03 04:31:14;;;;;;;8.17;7.37;;;20.10;99.90;;;;;;5012821;28;20270;-59
2022/08/03 04:33:45;;;;;;;7.80;7.10;;;20.20;99.90;;;;;;5021855;28;20256;-59
2022/08/03 04:36:17;;;;;;;7.57;6.87;;;20.30;99.90;;;;;;5023711;28;20247;-59
2022/08/03 04:38:55;;;;;;;7.90;7.20;;;20.30;99.90;;;;;;5030297;28;20233;-58
2022/08/03 04:41:26;;;;;;;7.43;6.73;;;20.40;99.90;;;;;;5030160;28;20708;-59
2022/08/03 04:43:55;;;;;;;8.37;7.73;;;20.40;99.90;;;;;;5026543;28;20732;-59
2022/08/03 04:46:26;;;;;;;8.07;7.37;;;20.50;99.90;;;;;;5024373;28;20327;-58
2022/08/03 04:48:55;;;;;;;7.67;7.07;;;20.50;99.90;;;;;;5027434;28;20708;-59
2022/08/03 04:51:24;;;;;;;7.87;7.23;;;20.60;99.90;;;;;;5032356;28;20227;-59
2022/08/03 04:53:53;;;;;;;8.10;7.40;;;20.60;99.90;;;;;;5031737;28;20313;-59
2022/08/03 04:56:21;;;;;;;8.00;7.40;;;20.70;99.90;;;;;;5024272;28;20255;-59
2022/08/03 04:58:50;;;;;;;8.53;6.80;;;20.80;99.90;;;;;;5032246;28;20236;-58
2022/08/03 05:01:19;;;;;;;7.97;7.10;;;20.80;99.90;;;;;;5031714;28;20251;-59
2022/08/03 05:03:47;;;;;;;8.83;7.50;;;21.00;99.90;;;;;;5030802;28;20262;-59
2022/08/03 05:06:15;;;;;;;8.33;6.73;;;21.00;99.90;;;;;;5013078;28;20233;-59
2022/08/03 05:08:44;;;;;;;7.87;7.27;;;21.10;99.90;;;;;;5012702;28;20292;-59
2022/08/03 05:11:16;;;;;;;8.47;7.63;;;21.20;99.90;;;;;;5014073;28;20240;-59
2022/08/03 05:13:44;;;;;;;8.43;7.73;;;21.40;99.90;;;;;;5029678;28;20327;-58
2022/08/03 05:16:14;;;;;;;7.80;7.10;;;21.40;99.90;;;;;;5032614;28;20749;-59
2022/08/03 05:18:43;;;;;;;7.47;6.77;;;21.60;99.90;;;;;;5032590;28;20722;-59
2022/08/03 05:21:12;;;;;;;8.10;7.33;;;21.50;99.90;;;;;;5032694;28;20802;-59
2022/08/03 05:23:41;;;;;;;9.30;7.40;;;21.70;99.90;;;;;;5031339;28;20252;-59
2022/08/03 05:26:10;;;;;;;7.67;6.87;;;21.90;99.90;;;;;;5031126;28;20319;-59
2022/08/03 05:28:40;;;;;;;8.37;7.57;;;22.00;99.90;;;;;;5031634;28;20278;-59
2022/08/03 05:31:18;;;;;;;7.40;6.70;;;22.20;99.90;;;;;;5029761;28;20239;-59
2022/08/03 05:33:47;;;;;;;7.47;6.70;;;22.30;99.90;;;;;;5033057;28;21061;-59
2022/08/03 05:36:16;;;;;;;7.23;6.60;;;22.50;99.90;;;;;;5022350;28;20263;-59
2022/08/03 05:38:44;;;;;;;8.53;7.70;;;22.50;99.90;;;;;;5035951;28;20692;-59
2022/08/03 05:41:12;;;;;;;7.23;6.63;;;22.70;99.90;;;;;;5036247;28;20584;-59
2022/08/03 05:43:53;;;;;;;7.47;6.77;;;22.90;99.90;;;;;;5036295;28;20235;-59
2022/08/03 05:46:22;;;;;;;9.43;8.13;;;23.00;99.90;;;;;;5036119;28;20252;-59
2022/08/03 05:48:50;;;;;;;8.50;6.90;;;23.00;99.90;;;;;;5035909;28;20279;-59
2022/08/03 05:51:19;;;;;;;7.53;6.83;;;23.00;99.90;;;;;;5035774;28;20278;-59
2022/08/03 05:53:47;;;;;;;7.47;6.73;;;23.10;99.90;;;;;;5035803;28;20223;-59
2022/08/03 05:56:15;;;;;;;6.90;6.13;;;23.20;99.90;;;;;;5035789;28;20323;-59
2022/08/03 05:58:47;;;;;;;6.00;5.50;;;23.30;99.90;;;;;;5035461;28;20690;-59
2022/08/03 06:01:17;;;;;;;7.63;6.67;;;23.60;99.90;;;;;;5035305;28;20323;-59
2022/08/03 06:03:45;;;;;;;7.43;6.70;;;23.60;99.90;;;;;;5034835;28;20236;-57
2022/08/03 06:06:13;;;;;;;6.73;6.13;;;23.70;99.90;;;;;;5035427;28;20627;-59
2022/08/03 06:08:42;;;;;;;6.93;6.33;;;23.70;99.90;;;;;;5035551;28;20236;-59
2022/08/03 06:11:11;;;;;;;6.30;5.60;;;23.80;99.90;;;;;;5035488;28;20228;-59
2022/08/03 06:13:39;;;;;;;5.97;5.47;;;23.90;99.90;;;;;;5035318;28;20303;-59
2022/08/03 06:16:07;;;;;;;5.90;5.30;;;23.90;99.90;;;;;;5016086;28;20614;-59
2022/08/03 06:18:37;;;;;;;6.13;5.63;;;24.20;99.90;;;;;;5030740;28;20235;-59
2022/08/03 06:21:05;;;;;;;6.30;5.70;;;24.40;99.90;;;;;;5035069;28;20681;-59
2022/08/03 06:23:43;;;;;;;6.53;5.93;;;24.40;99.90;;;;;;5035013;28;20247;-59
2022/08/03 06:26:23;;;;;;;6.33;5.37;;;24.40;99.90;;;;;;5028927;28;20231;-59
2022/08/03 06:28:51;;;;;;;5.13;4.70;;;24.40;99.90;;;;;;5035013;28;20260;-59
2022/08/03 06:31:28;;;;;;;6.20;5.67;;;24.70;99.90;;;;;;5034382;28;20236;-59
2022/08/03 06:34:03;;;;;;;5.63;5.10;;;25.00;99.90;;;;;;5034787;28;20573;-59
2022/08/03 06:36:51;;;;;;;6.10;4.77;;;25.20;99.90;;;;;;5033276;28;20227;-59
2022/08/03 06:39:20;;;;;;;5.73;5.13;;;25.30;99.90;;;;;;5028476;28;20737;-58
2022/08/03 06:41:52;;;;;;;5.13;4.33;;;25.30;99.90;;;;;;5031041;28;20226;-59
2022/08/03 06:44:20;;;;;;;6.40;4.40;;;25.50;99.90;;;;;;5031922;28;20258;-58
2022/08/03 06:46:48;;;;;;;5.13;4.13;;;25.80;99.90;;;;;;5017449;28;20329;-58
2022/08/03 06:49:18;;;;;;;5.37;4.90;;;25.90;99.90;;;;;;5025505;28;20635;-56
2022/08/03 06:51:46;;;;;;;6.87;4.43;;;26.10;99.90;;;;;;5034006;28;20232;-57
2022/08/03 06:54:35;;;;;;;6.23;4.50;;;26.20;99.90;;;;;;5030514;28;20602;-57
2022/08/03 06:57:04;;;;;;;4.70;4.30;;;26.30;99.90;;;;;;5031329;28;20233;-57
2022/08/03 06:59:32;;;;;;;4.83;4.43;;;26.50;99.90;;;;;;5034192;28;20265;-57
2022/08/03 07:02:20;;;;;;;4.80;4.40;;;26.60;99.90;;;;;;5033100;28;20233;-58
2022/08/03 07:04:50;;;;;;;4.20;3.77;;;26.70;99.90;;;;;;5030170;28;20564;-58
2022/08/03 07:07:19;;;;;;;4.63;4.00;;;26.90;99.90;;;;;;5027045;28;20613;-58
2022/08/03 07:09:48;;;;;;;4.90;3.80;;;27.10;99.90;;;;;;5033909;28;20232;-58
2022/08/03 07:12:26;;;;;;;3.73;3.30;;;27.30;99.90;;;;;;5034169;28;20256;-57
2022/08/03 07:14:55;;;;;;;3.80;3.50;;;27.40;99.90;;;;;;5034528;28;20223;-58
2022/08/03 07:17:28;;;;;;;5.97;3.80;;;27.60;99.90;;;;;;5034693;28;20239;-57
2022/08/03 07:19:58;;;;;;;5.53;3.80;;;27.70;99.90;;;;;;5034285;28;20262;-58
2022/08/03 07:22:27;;;;;;;3.73;3.43;;;27.80;99.90;;;;;;5016704;28;20236;-57
2022/08/03 07:24:55;;;;;;;7.47;3.60;;;28.00;99.90;;;;;;5032538;28;20238;-59
2022/08/03 07:27:25;;;;;;;3.83;3.33;;;27.90;99.90;;;;;;5032422;28;20238;-58
2022/08/03 07:29:53;;;;;;;4.57;3.43;;;28.20;99.90;;;;;;5016463;28;20243;-58
2022/08/03 07:32:22;;;;;;;4.87;3.47;;;28.40;99.90;;;;;;5033492;28;20336;-57
2022/08/03 07:34:50;;;;;;;5.53;3.57;;;28.50;99.90;;;;;;5033674;28;20704;-58
2022/08/03 07:37:20;;;;;;;4.33;3.20;;;28.40;99.90;;;;;;5033491;28;20257;-58
2022/08/03 07:39:48;;;;;;;6.50;3.53;;;28.20;99.90;;;;;;5033507;28;20709;-58
2022/08/03 07:42:16;;;;;;;5.37;2.80;;;28.20;99.90;;;;;;5033978;28;20231;-58
2022/08/03 07:44:45;;;;;;;5.00;3.43;;;28.40;99.90;;;;;;5031170;28;21460;-58
2022/08/03 07:47:18;;;;;;;6.27;3.17;;;28.50;99.90;;;;;;5033701;28;20248;-59
2022/08/03 07:49:49;;;;;;;4.53;2.80;;;28.80;99.90;;;;;;5033044;28;20322;-57
2022/08/03 07:55:06;;;;;;;3.57;2.53;;;29.20;99.90;;;;;;5032817;28;20692;-57
2022/08/03 07:57:34;;;;;;;4.17;2.43;;;29.30;99.90;;;;;;5033233;28;20228;-57
2022/08/03 08:00:04;;;;;;;4.53;2.13;;;29.40;99.90;;;;;;5033784;28;20237;-57
2022/08/03 08:02:41;;;;;;;5.33;2.67;;;29.60;99.90;;;;;;5032392;28;20301;-57
2022/08/03 08:05:10;;;;;;;5.87;2.37;;;29.50;99.90;;;;;;5032594;28;20776;-58
2022/08/03 08:07:40;;;;;;;4.40;2.30;;;29.30;99.90;;;;;;5033029;28;20307;-57
2022/08/03 08:10:10;;;;;;;5.27;2.17;;;29.30;99.90;;;;;;5032973;28;20742;-57
2022/08/03 08:12:39;;;;;;;4.90;2.40;;;29.30;99.90;;;;;;5032442;28;20232;-57
2022/08/03 08:15:08;;;;;;;3.57;1.90;;;29.40;99.90;;;;;;5027698;28;20259;-57
2022/08/03 08:17:44;;;;;;;3.10;2.20;;;29.60;99.90;;;;;;5022423;28;20668;-55
2022/08/03 08:20:16;;;;;;;4.00;2.10;;;30.00;99.90;;;;;;5017003;28;20740;-57
2022/08/03 08:22:58;;;;;;;3.77;2.10;;;30.00;99.90;;;;;;5017342;28;20224;-56
2022/08/03 08:25:29;;;;;;;6.80;2.23;;;29.80;99.90;;;;;;5018720;28;20234;-56
2022/08/03 08:28:00;;;;;;;7.00;2.33;;;29.60;99.90;;;;;;5016742;28;20232;-57
2022/08/03 08:30:49;;;;;;;4.40;1.90;;;29.30;99.90;;;;;;5020004;28;20248;-56
2022/08/03 08:33:17;;;;;;;7.73;2.20;;;29.60;99.90;;;;;;5019945;28;21738;-55
2022/08/03 08:35:51;;;;;;;3.63;2.13;;;30.00;99.90;;;;;;5017316;28;20236;-56
2022/08/03 08:38:22;;;;;;;4.87;1.87;;;29.70;99.90;;;;;;5015249;28;20255;-55
2022/08/03 08:40:51;;;;;;;5.47;2.20;;;29.70;99.90;;;;;;5017695;28;20228;-56
2022/08/03 08:43:19;;;;;;;4.27;2.10;;;29.80;99.90;;;;;;5018142;28;20248;-56
2022/08/03 08:45:50;;;;;;;3.57;2.10;;;29.70;99.90;;;;;;5017084;28;20272;-56
2022/08/03 08:48:22;;;;;;;4.40;2.20;;;29.80;99.90;;;;;;5016569;28;20783;-57
2022/08/03 08:50:54;;;;;;;6.60;2.20;;;29.80;99.90;;;;;;5019799;28;20272;-57
2022/08/03 08:53:26;;;;;;;4.17;1.90;;;29.90;99.90;;;;;;5020540;28;20302;-56
2022/08/03 08:55:57;;;;;;;4.97;1.90;;;30.30;99.90;;;;;;5020482;28;20248;-56
2022/08/03 08:58:31;;;;;;;5.07;2.37;;;30.30;99.90;;;;;;5018672;28;21494;-56
2022/08/03 09:01:00;;;;;;;3.90;1.80;;;30.40;99.90;;;;;;5019422;28;20244;-56
2022/08/03 09:03:28;;;;;;;4.00;2.13;;;30.50;99.90;;;;;;5020174;28;20230;-55
2022/08/03 09:06:00;;;;;;;4.67;1.90;;;30.80;99.90;;;;;;5019116;28;20275;-55
2022/08/03 09:08:31;;;;;;;3.67;1.97;;;30.90;99.90;;;;;;5020344;28;20705;-56
2022/08/03 09:11:00;;;;;;;7.53;2.10;;;30.70;99.90;;;;;;5023752;28;20354;-56
2022/08/03 09:13:29;;;;;;;4.57;1.90;;;30.40;99.90;;;;;;5023712;28;20228;-56
2022/08/03 09:16:11;;;;;;;4.50;2.20;;;30.50;99.90;;;;;;5023332;28;20228;-56
2022/08/03 09:18:40;;;;;;;4.40;2.40;;;30.70;99.90;;;;;;5024082;28;20330;-56
2022/08/03 09:21:17;;;;;;;8.07;2.30;;;30.70;99.90;;;;;;5023892;28;20306;-56
2022/08/03 09:24:05;;;;;;;7.50;2.50;;;30.80;99.90;;;;;;5023913;28;20238;-57
2022/08/03 09:26:50;;;;;;;3.67;2.23;;;30.70;99.90;;;;;;5021361;28;20244;-56
2022/08/03 09:29:21;;;;;;;3.77;2.17;;;30.40;99.90;;;;;;5024376;28;21465;-54
2022/08/03 09:31:52;;;;;;;5.17;2.47;;;30.80;99.90;;;;;;5023112;28;20312;-55
2022/08/03 09:34:27;;;;;;;4.67;2.40;;;30.90;99.90;;;;;;5024103;28;20282;-55
2022/08/03 09:36:56;;;;;;;6.50;2.40;;;31.10;99.90;;;;;;5020908;28;20311;-54
2022/08/03 09:39:30;;;;;;;6.80;2.70;;;30.90;99.90;;;;;;5023973;28;20319;-56
2022/08/03 09:42:10;;;;;;;4.73;2.40;;;30.70;99.90;;;;;;5023802;28;20239;-55
2022/08/03 09:44:44;;;;;;;4.57;2.27;;;30.70;99.90;;;;;;5024095;28;20692;-56
2022/08/03 09:47:13;;;;;;;5.73;2.40;;;30.90;99.90;;;;;;5020668;28;20342;-56
2022/08/03 09:49:43;;;;;;;6.20;2.30;;;31.20;99.90;;;;;;5019907;28;20236;-56
2022/08/03 09:52:17;;;;;;;5.27;2.60;;;31.50;99.90;;;;;;5020971;28;20240;-55
2022/08/03 09:55:10;;;;;;;4.27;2.20;;;31.50;99.90;;;;;;5019490;28;20232;-55
2022/08/03 09:58:07;;;;;;;3.93;2.40;;;31.60;99.90;;;;;;5017207;28;20327;-54
2022/08/03 10:00:53;;;;;;;5.43;2.10;;;31.40;99.90;;;;;;5020405;28;20241;-56
2022/08/03 10:03:22;;;;;;;3.50;2.03;;;32.00;99.90;;;;;;5021058;28;20287;-55
2022/08/03 10:05:51;;;;;;;6.20;2.13;;;32.10;99.90;;;;;;5020238;28;20254;-54
2022/08/03 10:08:24;;;;;;;6.47;2.10;;;32.20;99.90;;;;;;5018673;28;20223;-55
2022/08/03 10:10:54;;;;;;;3.53;2.00;;;32.10;99.90;;;;;;5020334;28;20239;-56
2022/08/03 10:13:23;;;;;;;4.63;1.90;;;31.80;99.90;;;;;;5023227;28;20232;-54
2022/08/03 10:15:51;;;;;;;4.93;2.03;;;32.00;99.90;;;;;;5023139;28;20608;-56
2022/08/03 10:18:39;;;;;;;5.87;2.27;;;32.40;99.90;;;;;;5020376;28;21383;-56
2022/08/03 10:21:10;;;;;;;4.73;2.00;;;32.50;99.90;;;;;;5020362;28;20763;-56
2022/08/03 10:23:40;;;;;;;5.77;1.93;;;32.30;99.90;;;;;;5020541;28;20229;-55
2022/08/03 10:26:13;;;;;;;5.60;2.20;;;32.50;99.90;;;;;;5018724;28;20228;-55
2022/08/03 10:28:46;;;;;;;3.20;1.87;;;32.60;99.90;;;;;;5019811;28;20275;-56
2022/08/03 10:31:18;;;;;;;6.53;1.83;;;32.70;99.90;;;;;;5020889;28;20228;-56
2022/08/03 10:33:49;;;;;;;4.63;2.07;;;32.90;99.90;;;;;;5022979;28;20258;-56
2022/08/03 10:36:23;;;;;;;5.93;1.80;;;33.20;99.90;;;;;;5020223;28;20260;-55
2022/08/03 10:38:53;;;;;;;5.67;2.20;;;33.20;99.90;;;;;;5021620;28;20298;-55
2022/08/03 10:41:25;;;;;;;6.10;1.90;;;33.30;99.90;;;;;;5022072;28;21623;-56
2022/08/03 10:43:58;;;;;;;9.23;2.03;;;33.20;99.90;;;;;;5022481;28;20303;-55
2022/08/03 10:46:28;;;;;;;3.27;1.77;;;33.00;99.90;;;;;;5019612;28;20736;-54
2022/08/03 10:48:57;;;;;;;6.97;1.70;;;33.10;99.90;;;;;;5021961;28;21539;-55
2022/08/03 10:51:30;;;;;;;5.80;2.07;;;33.00;99.90;;;;;;5022471;28;20604;-55
2022/08/03 10:53:59;;;;;;;6.77;2.00;;;33.10;99.90;;;;;;5019180;28;20241;-54
2022/08/03 10:59:59;;;;;;;7.43;1.80;;;33.80;99.90;;;;;;4953139;28;20290;-56
2022/08/03 11:03:00;;;;;;;4.23;1.70;;;34.20;99.90;;;;;;5012617;28;20323;-56
2022/08/03 11:05:29;;;;;;;4.90;1.70;;;34.50;99.90;;;;;;5011926;28;20261;-56
2022/08/03 11:08:20;;;;;;;4.60;1.77;;;33.80;99.90;;;;;;5014663;28;20684;-56
2022/08/03 11:10:49;;;;;;;3.83;1.80;;;33.60;99.90;;;;;;5014591;28;20245;-56
2022/08/03 11:13:21;;;;;;;6.30;1.77;;;34.00;99.90;;;;;;5027843;28;20235;-56
2022/08/03 11:15:51;;;;;;;4.73;1.80;;;33.90;99.90;;;;;;5031608;28;20228;-57
2022/08/03 11:18:19;;;;;;;6.00;2.07;;;34.10;99.90;;;;;;5028936;28;20637;-57
2022/08/03 11:20:54;;;;;;;6.43;2.00;;;33.90;99.90;;;;;;5014251;28;20240;-57
2022/08/03 11:23:41;;;;;;;6.27;1.83;;;34.00;99.90;;;;;;5024600;28;20626;-57
2022/08/03 11:26:29;;;;;;;5.97;2.20;;;34.00;99.90;;;;;;5028409;28;20225;-56
2022/08/03 11:29:37;;;;;;;4.40;1.90;;;34.30;99.90;;;;;;5034233;28;20595;-57
2022/08/03 11:32:05;;;;;;;5.20;1.97;;;35.00;99.90;;;;;;5032794;28;20233;-56
2022/08/03 11:34:33;;;;;;;4.63;1.57;;;35.20;99.80;;;;;;5033713;28;20319;-57
2022/08/03 11:37:21;;;;;;;7.47;2.40;;;35.10;99.30;;;;;;5034197;28;20741;-57
2022/08/03 11:39:55;;;;;;;6.77;1.90;;;35.30;99.90;;;;;;5034278;28;20749;-57
2022/08/03 11:42:46;;;;;;;3.20;1.77;;;34.70;99.40;;;;;;5033988;28;20704;-57
2022/08/03 11:45:18;;;;;;;6.13;1.80;;;34.50;99.60;;;;;;5014345;28;20256;-57
2022/08/03 11:47:49;;;;;;;3.73;1.70;;;34.80;99.30;;;;;;5013868;28;20286;-57
2022/08/03 11:50:20;;;;;;;4.37;1.70;;;34.90;98.60;;;;;;5014474;28;20234;-57
2022/08/03 11:52:49;;;;;;;5.17;1.97;;;34.60;99.20;;;;;;5033004;28;20691;-57
2022/08/03 11:55:20;;;;;;;6.73;1.90;;;34.70;99.20;;;;;;5025527;28;20225;-57
2022/08/03 11:57:49;;;;;;;7.73;2.17;;;34.70;98.90;;;;;;5024882;28;20692;-57
2022/08/03 12:00:38;;;;;;;5.93;1.73;;;34.80;98.70;;;;;;5024006;28;20229;-56
2022/08/03 12:03:10;;;;;;;5.70;1.83;;;35.00;98.70;;;;;;5026338;28;20225;-57
2022/08/03 12:05:45;;;;;;;9.07;2.20;;;35.10;98.60;;;;;;5029617;28;20241;-57
2022/08/03 12:08:30;;;;;;;6.93;2.13;;;34.80;98.60;;;;;;5026227;28;20225;-57
2022/08/03 12:11:01;;;;;;;4.13;1.90;;;34.40;99.00;;;;;;5019816;28;20233;-57
2022/08/03 12:13:38;;;;;;;6.77;1.90;;;34.40;98.70;;;;;;5024889;28;20675;-56
2022/08/03 12:16:28;;;;;;;7.33;2.47;;;34.00;98.40;;;;;;5015120;28;20299;-56
2022/08/03 12:18:58;;;;;;;4.60;1.73;;;33.70;98.90;;;;;;5013777;28;20755;-57
2022/08/03 12:21:27;;;;;;;7.63;1.97;;;33.50;98.80;;;;;;5013517;28;20328;-56
2022/08/03 12:23:59;;;;;;;5.93;2.00;;;33.30;99.40;;;;;;5027189;28;20259;-56
2022/08/03 12:26:29;;;;;;;6.77;2.07;;;33.10;99.60;;;;;;5013271;28;20237;-56
2022/08/03 12:28:57;;;;;;;6.23;1.90;;;33.10;99.70;;;;;;5016207;28;20320;-57
2022/08/03 12:31:27;;;;;;;6.93;2.10;;;33.10;99.90;;;;;;5032646;28;20236;-56
2022/08/03 12:34:01;;;;;;;7.10;2.00;;;33.20;99.90;;;;;;5033236;28;20235;-57
2022/08/03 12:36:31;;;;;;;6.47;2.20;;;33.30;99.90;;;;;;5032988;28;20322;-56
2022/08/03 12:39:01;;;;;;;6.63;2.17;;;33.00;99.90;;;;;;5033244;28;20263;-57
2022/08/03 12:41:31;;;;;;;4.97;2.10;;;33.00;99.90;;;;;;5016856;28;20807;-55
2022/08/03 12:44:03;;;;;;;7.00;2.00;;;32.90;99.90;;;;;;5017535;28;20225;-57
2022/08/03 12:46:34;;;;;;;6.87;2.00;;;32.60;99.80;;;;;;5017674;28;20759;-56
2022/08/03 12:49:08;;;;;;;5.70;2.03;;;32.70;99.90;;;;;;5018220;28;20704;-57
2022/08/03 12:51:38;;;;;;;7.10;2.07;;;32.90;99.90;;;;;;5015955;28;20554;-56
2022/08/03 12:54:07;;;;;;;9.70;2.07;;;32.90;99.70;;;;;;5017616;28;20268;-55
2022/08/03 12:56:35;;;;;;;5.63;1.97;;;32.80;99.90;;;;;;5017758;28;20228;-56
2022/08/03 12:59:25;;;;;;;5.37;2.17;;;32.70;99.90;;;;;;5017792;28;20340;-56
2022/08/03 13:02:05;;;;;;;7.33;2.00;;;32.70;99.90;;;;;;5024645;28;20684;-56
2022/08/03 13:04:36;;;;;;;5.60;2.00;;;32.70;99.90;;;;;;5020911;28;20234;-56
2022/08/03 13:07:06;;;;;;;6.10;1.97;;;32.40;99.90;;;;;;5013113;28;20238;-57
2022/08/03 13:09:44;;;;;;;5.53;1.90;;;32.30;99.90;;;;;;5012886;28;20225;-57
2022/08/03 13:12:13;;;;;;;5.93;1.97;;;32.40;99.90;;;;;;5021995;28;20736;-58
2022/08/03 13:14:42;;;;;;;8.50;2.57;;;32.50;99.90;;;;;;5024857;28;20248;-57
2022/08/03 13:17:12;;;;;;;6.40;2.40;;;32.50;99.90;;;;;;5026950;28;20233;-57
2022/08/03 13:19:41;;;;;;;7.07;2.20;;;32.60;99.90;;;;;;5012833;28;20229;-57
2022/08/03 13:22:13;;;;;;;9.13;2.30;;;32.60;99.90;;;;;;5013347;28;20565;-57
2022/08/03 13:24:42;;;;;;;4.33;1.77;;;32.30;99.90;;;;;;5028657;28;20258;-56
2022/08/03 13:27:10;;;;;;;7.20;2.10;;;32.30;99.90;;;;;;5020520;28;20242;-57
2022/08/03 13:29:58;;;;;;;4.70;1.70;;;32.40;99.90;;;;;;5032288;28;20583;-57